createdAt,value
2022-11-15T00:01:28.525Z,18.70
2022-11-15T00:05:49.727Z,20.42
2022-11-15T00:10:09.998Z,18.88
2022-11-15T00:14:30.795Z,19.40
2022-11-15T00:18:51.696Z,18.65
2022-11-15T00:23:11.749Z,19.08
2022-11-15T00:27:32.178Z,19.15
2022-11-15T00:31:53.398Z,18.25
2022-11-15T00:36:13.932Z,20.35
2022-11-15T00:40:34.305Z,19.38
2022-11-15T00:44:54.513Z,19.88
2022-11-15T00:49:14.794Z,17.33
2022-11-15T00:53:35.501Z,18.65
2022-11-15T00:57:56.078Z,17.90
2022-11-15T01:02:16.339Z,17.33
2022-11-15T01:06:36.745Z,19.20
2022-11-15T01:11:02.392Z,18.42
2022-11-15T01:15:22.507Z,19.05
2022-11-15T01:19:42.838Z,19.02
2022-11-15T01:24:03.258Z,19.98
2022-11-15T01:28:23.912Z,19.23
2022-11-15T01:32:44.020Z,19.10
2022-11-15T01:37:04.435Z,20.55
2022-11-15T01:41:28.248Z,19.13
2022-11-15T01:45:54.719Z,20.63
2022-11-15T01:50:21.121Z,20.27
2022-11-15T01:54:44.263Z,20.52
2022-11-15T01:59:08.016Z,21.15
2022-11-15T02:03:39.096Z,21.38
2022-11-15T02:08:01.929Z,19.08
2022-11-15T02:12:23.165Z,20.77
2022-11-15T02:16:49.511Z,19.58
2022-11-15T02:21:42.537Z,20.75
2022-11-15T02:26:32.064Z,20.85
2022-11-15T02:31:02.670Z,22.02
2022-11-15T02:35:22.564Z,19.95
2022-11-15T02:39:57.776Z,20.95
2022-11-15T02:44:40.144Z,20.98
2022-11-15T02:49:00.694Z,21.20
2022-11-15T02:53:26.430Z,22.42
2022-11-15T02:57:53.904Z,21.80
2022-11-15T03:02:52.159Z,20.98
2022-11-15T03:07:19.737Z,22.35
2022-11-15T03:11:49.041Z,20.58
2022-11-15T03:16:16.449Z,20.85
2022-11-15T03:20:37.559Z,20.38
2022-11-15T03:25:02.120Z,21.02
2022-11-15T03:29:28.743Z,20.65
2022-11-15T03:33:52.656Z,20.25
2022-11-15T03:38:18.056Z,18.98
2022-11-15T03:42:55.602Z,20.65
2022-11-15T03:47:22.432Z,18.88
2022-11-15T03:51:42.569Z,19.13
2022-11-15T03:56:02.984Z,17.90
2022-11-15T04:00:23.593Z,19.55
2022-11-15T04:04:43.569Z,18.63
2022-11-15T04:09:03.979Z,19.30
2022-11-15T04:13:24.232Z,18.55
2022-11-15T04:17:50.077Z,16.25
2022-11-15T04:22:28.845Z,17.08
2022-11-15T04:26:49.238Z,16.35
2022-11-15T04:31:09.509Z,17.27
2022-11-15T04:35:29.965Z,16.25
2022-11-15T04:39:49.922Z,14.30
2022-11-15T04:44:10.761Z,14.43
2022-11-15T04:48:31.050Z,13.40
2022-11-15T04:52:54.000Z,13.23
2022-11-15T04:57:15.221Z,13.02
2022-11-15T05:01:36.765Z,13.38
2022-11-15T05:05:59.999Z,12.73
2022-11-15T05:10:20.098Z,12.88
2022-11-15T05:14:40.498Z,13.02
2022-11-15T05:19:00.744Z,12.45
2022-11-15T05:23:21.107Z,12.68
2022-11-15T05:27:41.441Z,11.07
2022-11-15T05:32:01.562Z,10.32
2022-11-15T05:36:38.995Z,10.70
2022-11-15T05:41:00.374Z,10.35
2022-11-15T05:45:26.472Z,10.90
2022-11-15T05:49:51.086Z,11.00
2022-11-15T05:54:12.307Z,10.20
2022-11-15T05:58:35.716Z,9.30
2022-11-15T06:02:56.068Z,9.98
2022-11-15T06:07:16.840Z,9.77
2022-11-15T06:11:37.050Z,10.15
2022-11-15T06:15:57.946Z,9.82
2022-11-15T06:20:18.393Z,8.93
2022-11-15T06:24:38.590Z,8.13
2022-11-15T06:28:59.052Z,7.28
2022-11-15T06:33:19.445Z,8.25
2022-11-15T06:37:39.619Z,7.05
2022-11-15T06:41:59.913Z,7.90
2022-11-15T06:46:20.501Z,6.75
2022-11-15T06:50:40.841Z,6.07
2022-11-15T06:55:01.087Z,6.13
2022-11-15T06:59:21.599Z,5.57
2022-11-15T07:03:43.443Z,8.48
2022-11-15T07:08:03.965Z,5.18
2022-11-15T07:12:24.247Z,4.93
2022-11-15T07:16:44.411Z,4.97
2022-11-15T07:21:06.056Z,5.43
2022-11-15T07:25:26.084Z,5.22
2022-11-15T07:29:46.247Z,5.20
2022-11-15T07:34:06.604Z,5.20
2022-11-15T07:38:26.960Z,5.45
2022-11-15T07:42:56.976Z,5.85
2022-11-15T07:47:17.300Z,5.78
2022-11-15T07:51:37.735Z,6.00
2022-11-15T07:55:58.137Z,6.43
2022-11-15T08:00:19.077Z,5.50
2022-11-15T08:04:39.170Z,5.13
2022-11-15T08:08:59.502Z,5.15
2022-11-15T08:13:20.034Z,5.03
2022-11-15T08:17:40.257Z,4.65
2022-11-15T08:22:00.379Z,5.07
2022-11-15T08:26:20.844Z,5.22
2022-11-15T08:30:43.817Z,6.07
2022-11-15T08:35:04.332Z,7.50
2022-11-15T08:39:24.332Z,7.72
2022-11-15T08:43:44.547Z,8.13
2022-11-15T08:48:05.042Z,7.82
2022-11-15T08:52:25.472Z,7.00
2022-11-15T08:56:45.638Z,6.82
2022-11-15T09:01:06.473Z,7.45
2022-11-15T09:05:27.587Z,7.38
2022-11-15T09:09:47.690Z,6.25
2022-11-15T09:14:08.139Z,6.45
2022-11-15T09:18:29.107Z,6.32
2022-11-15T09:22:49.563Z,6.07
2022-11-15T09:27:09.748Z,5.43
2022-11-15T09:31:30.673Z,6.00
2022-11-15T09:35:51.095Z,5.97
2022-11-15T09:40:15.891Z,5.70
2022-11-15T09:44:52.921Z,6.00
2022-11-15T09:49:16.451Z,5.13
2022-11-15T09:58:26.559Z,6.05
2022-11-15T10:02:55.658Z,5.65
2022-11-15T10:11:38.322Z,5.22
2022-11-15T10:15:46.410Z,4.95
2022-11-15T10:20:06.900Z,3.97
2022-11-15T10:24:13.813Z,4.25
2022-11-15T10:28:30.536Z,3.92
2022-11-15T10:32:35.257Z,4.22
2022-11-15T10:36:36.917Z,3.65
2022-11-15T10:40:41.694Z,3.60
2022-11-15T10:44:45.937Z,2.90
2022-11-15T10:48:47.713Z,3.65
2022-11-15T10:52:49.479Z,3.28
2022-11-15T10:56:57.032Z,3.47
2022-11-15T11:01:13.625Z,3.00
2022-11-15T11:05:41.677Z,3.08
2022-11-15T11:09:44.121Z,3.40
2022-11-15T11:13:45.866Z,2.80
2022-11-15T11:18:16.388Z,2.55
2022-11-15T11:22:33.896Z,2.42
2022-11-15T11:27:10.979Z,2.42
2022-11-15T11:31:24.911Z,2.35
2022-11-15T11:35:38.090Z,2.17
2022-11-15T11:40:14.283Z,2.30
2022-11-15T11:44:56.577Z,1.95
2022-11-15T11:49:11.297Z,1.63
2022-11-15T11:53:19.476Z,2.00
2022-11-15T11:57:43.832Z,1.95
2022-11-15T12:01:46.420Z,1.58
2022-11-15T12:05:54.459Z,2.25
2022-11-15T12:10:24.996Z,1.77
2022-11-15T12:14:34.509Z,2.08
2022-11-15T12:18:36.623Z,1.92
2022-11-15T12:23:21.437Z,1.48
2022-11-15T12:28:03.060Z,1.90
2022-11-15T12:32:06.621Z,1.48
2022-11-15T12:36:23.601Z,1.67
2022-11-15T12:40:44.666Z,1.65
2022-11-15T12:44:49.580Z,1.98
2022-11-15T12:48:59.066Z,1.40
2022-11-15T12:53:34.393Z,1.65
2022-11-15T12:57:40.414Z,1.65
2022-11-15T13:01:42.089Z,1.10
2022-11-15T13:05:43.758Z,1.67
2022-11-15T13:09:45.407Z,1.52
2022-11-15T13:13:47.242Z,1.27
2022-11-15T13:17:54.309Z,1.00
2022-11-15T13:22:14.821Z,1.60
2022-11-15T13:26:20.036Z,1.20
2022-11-15T13:30:24.965Z,1.38
2022-11-15T13:38:58.508Z,0.88
2022-11-15T13:43:00.856Z,1.40
2022-11-15T13:47:15.594Z,1.60
2022-11-15T13:51:41.379Z,1.05
2022-11-15T13:55:43.205Z,1.42
2022-11-15T13:59:51.095Z,1.20
2022-11-15T14:03:56.849Z,1.17
2022-11-15T14:08:26.136Z,0.98
2022-11-15T14:12:30.297Z,1.23
2022-11-15T14:16:37.641Z,1.05
2022-11-15T14:20:40.713Z,1.30
2022-11-15T14:24:48.097Z,1.35
2022-11-15T14:28:49.786Z,0.97
2022-11-15T14:32:52.021Z,0.98
2022-11-15T14:36:53.686Z,1.17
2022-11-15T14:40:56.810Z,1.13
2022-11-15T14:44:58.825Z,1.50
2022-11-15T14:49:00.562Z,1.00
2022-11-15T14:53:02.590Z,1.50
2022-11-15T14:57:04.259Z,1.05
2022-11-15T15:01:20.526Z,1.00
2022-11-15T15:05:30.893Z,1.60
2022-11-15T15:09:32.525Z,1.02
2022-11-15T15:13:34.180Z,1.17
2022-11-15T15:17:36.136Z,1.15
2022-11-15T15:21:38.852Z,1.30
2022-11-15T15:25:41.427Z,0.93
2022-11-15T15:29:43.125Z,1.00
2022-11-15T15:33:45.437Z,0.65
2022-11-15T15:37:48.620Z,1.00
2022-11-15T15:41:53.531Z,1.15
2022-11-15T15:45:59.033Z,1.65
2022-11-15T15:50:00.751Z,0.57
2022-11-15T15:54:02.597Z,0.85
2022-11-15T15:58:06.007Z,1.05
2022-11-15T16:02:12.341Z,1.42
2022-11-15T16:06:46.265Z,0.80
2022-11-15T16:10:48.825Z,1.10
2022-11-15T16:14:50.587Z,1.10
2022-11-15T16:18:52.317Z,1.45
2022-11-15T16:22:53.961Z,1.13
2022-11-15T16:26:55.946Z,1.42
2022-11-15T16:31:03.897Z,2.20
2022-11-15T16:35:05.848Z,1.50
2022-11-15T16:39:11.562Z,1.15
2022-11-15T16:43:13.460Z,1.40
2022-11-15T16:47:19.250Z,1.75
2022-11-15T16:51:21.768Z,1.58
2022-11-15T16:55:26.111Z,1.60
2022-11-15T16:59:27.812Z,1.48
2022-11-15T17:03:32.074Z,1.52
2022-11-15T17:07:33.772Z,2.05
2022-11-15T17:11:35.470Z,1.50
2022-11-15T17:15:37.181Z,2.17
2022-11-15T17:19:38.809Z,1.38
2022-11-15T17:23:40.511Z,1.85
2022-11-15T17:27:42.653Z,2.00
2022-11-15T17:31:44.725Z,1.85
2022-11-15T17:35:46.493Z,1.80
2022-11-15T17:39:48.320Z,1.85
2022-11-15T17:43:50.296Z,1.75
2022-11-15T17:47:52.033Z,1.45
2022-11-15T17:51:53.813Z,2.03
2022-11-15T17:55:56.323Z,1.63
2022-11-15T17:59:58.105Z,2.20
2022-11-15T18:04:02.171Z,2.00
2022-11-15T18:08:04.102Z,1.90
2022-11-15T18:12:05.848Z,2.20
2022-11-15T18:16:11.007Z,2.78
2022-11-15T18:20:13.200Z,2.58
2022-11-15T18:24:14.864Z,2.20
2022-11-15T18:28:16.625Z,2.42
2022-11-15T18:32:18.612Z,2.50
2022-11-15T18:36:23.589Z,2.33
2022-11-15T18:40:25.290Z,2.55
2022-11-15T18:44:28.768Z,2.70
2022-11-15T18:48:32.180Z,2.70
2022-11-15T18:52:33.862Z,2.33
2022-11-15T18:56:35.751Z,2.83
2022-11-15T19:00:37.540Z,3.28
2022-11-15T19:04:39.217Z,4.05
2022-11-15T19:08:42.464Z,3.28
2022-11-15T19:12:44.204Z,3.38
2022-11-15T19:16:50.537Z,3.28
2022-11-15T19:20:52.312Z,3.83
2022-11-15T19:24:54.001Z,3.53
2022-11-15T19:28:58.107Z,4.20
2022-11-15T19:32:59.790Z,3.55
2022-11-15T19:37:03.337Z,3.90
2022-11-15T19:41:07.045Z,4.22
2022-11-15T19:45:09.224Z,4.78
2022-11-15T19:49:11.484Z,4.10
2022-11-15T19:53:13.479Z,4.95
2022-11-15T19:57:15.139Z,4.60
2022-11-15T20:01:29.302Z,5.72
2022-11-15T20:05:31.225Z,5.32
2022-11-15T20:09:32.876Z,4.57
2022-11-15T20:13:34.891Z,5.35
2022-11-15T20:17:36.605Z,5.10
2022-11-15T20:21:38.480Z,4.82
2022-11-15T20:25:46.363Z,4.80
2022-11-15T20:29:48.954Z,5.53
2022-11-15T20:33:51.775Z,5.13
2022-11-15T20:37:53.513Z,5.70
2022-11-15T20:41:55.194Z,5.53
2022-11-15T20:45:56.969Z,5.93
2022-11-15T20:50:14.854Z,5.38
2022-11-15T20:54:20.618Z,5.25
2022-11-15T20:58:22.295Z,5.70
2022-11-15T21:02:24.126Z,4.68
2022-11-15T21:06:26.982Z,4.93
2022-11-15T21:10:47.490Z,5.63
2022-11-15T21:14:50.756Z,5.30
2022-11-15T21:18:53.392Z,5.68
2022-11-15T21:22:55.156Z,5.90
2022-11-15T21:26:56.968Z,6.75
2022-11-15T21:31:00.490Z,5.95
2022-11-15T21:35:02.228Z,6.35
2022-11-15T21:39:04.572Z,6.40
2022-11-15T21:43:08.574Z,5.80
2022-11-15T21:47:10.300Z,6.35
2022-11-15T21:51:12.411Z,5.30
2022-11-15T21:55:14.149Z,6.43
2022-11-15T21:59:15.843Z,6.68
2022-11-15T22:03:17.528Z,6.57
2022-11-15T22:07:19.380Z,7.30
2022-11-15T22:11:21.256Z,6.65
2022-11-15T22:15:22.971Z,6.35
2022-11-15T22:19:24.641Z,6.45
2022-11-15T22:23:28.138Z,7.18
2022-11-15T22:27:32.873Z,7.10
2022-11-15T22:31:34.608Z,7.00
2022-11-15T22:35:36.921Z,6.50
2022-11-15T22:39:40.662Z,6.90
2022-11-15T22:43:42.300Z,7.03
2022-11-15T22:47:44.001Z,7.40
2022-11-15T22:51:45.725Z,6.47
2022-11-15T22:55:52.174Z,6.85
2022-11-15T22:59:54.029Z,7.13
2022-11-15T23:03:55.841Z,6.72
2022-11-15T23:07:57.622Z,7.18
2022-11-15T23:12:17.968Z,7.20
2022-11-15T23:16:23.756Z,6.38
2022-11-15T23:20:42.588Z,6.72
2022-11-15T23:24:45.437Z,6.78
2022-11-15T23:28:47.107Z,5.97
2022-11-15T23:33:07.508Z,6.43
2022-11-15T23:37:11.695Z,5.75
2022-11-15T23:41:13.412Z,6.53
2022-11-15T23:45:15.130Z,6.72
2022-11-15T23:49:17.034Z,6.88
2022-11-15T23:53:21.709Z,6.70
2022-11-15T23:57:23.401Z,7.95
